KNCA

New River MCAS / H / / McCutcheon Field / Airport

Jacksonville, North Carolina, USA
METAR KNCA 151556Z AUTO 00000KT 8SM -RA OVC006 18/18 A2995 RMK AO2 RAE21B40 SLP144 P0001 T01780178
Observed Flight Rules
Dec-15 @ 15:56 UTC (8 minutes ago) Instrument Flight Rules
Visibility Clouds Conditions
8 miles
  • Overcast at 600' AGL
  • Light Rain
Temperatures Readings Precipitation
Current 18°C / 64°F
Dewpoint 18°C / 64°F
Humidity 100%
Altimeter 29.95" Hg
Pressure 1014.4 hPa
Elevation 8
Current Rain 0.01
METAR KNCA 151556Z AUTO 00000KT 8SM -RA OVC006 18/18 A2995 RMK AO2 RAE21B40 SLP144 P0001 T01780178
Observed Flight Rules
Dec-15 @ 15:56 UTC
(8 minutes ago)
IFR
Clouds
  • Overcast at 600' AGL
Conditions
  • Light Rain
Temperature Dewpoint
18°C / 64°F 18°C / 64°F
Humidity Altimeter Pressure
100% 29.95" Hg 1014.4 hPa
Current Rain
0.01